Okeene, Oklahoma
Current Conditions -  °F | °C
As of 7:15 AM on Thursday 27 Nov 2014 (Local Time) from KJWG Reporting Station
Clear Clear  
Wind Chill: 25°   Ceiling: Unl
Heat Index: 25°   Visibility: 10mi
Dew Point: 23°   Wind: 0mph
Humidity: 95%   Direction: NA
Pressure: 30.51"   Gusts: NA
Location:  36.12°N, 98.32°W
Report Text: KJWG 271315Z AUTO 00000KT 10SM CLR M04/M05 A3051 RMK AO2 T10411048
Loading
Personal Weather Stations






























Interactive Weather Map New forecast layout! Learn more

10-Day Weather Forecast

Advertisements
Track Severe Weather on mobile